Time;durP1;ratioP1;P1;durP2;ratioP2;P2;SDS_P1;SDS_P2;PMS_P1;PMS_P2;Temp;Humidity;BMP_temperature;BMP_pressure;BME280_temperature;BME280_humidity;BME280_pressure;Samples;Min_cycle;Max_cycle;Signal;HPM_P1;HPM_P2
2021/09/23 00:00:13;;;;;;;7.28;5.45;;;9.70;99.90;;;;;;4985370;28;20041;-79
2021/09/23 00:05:14;;;;;;;7.50;5.68;;;9.70;99.90;;;;;;5011079;28;20029;-80
2021/09/23 00:07:40;;;;;;;7.45;5.35;;;9.60;99.90;;;;;;4994577;28;20057;-79
2021/09/23 00:10:08;;;;;;;8.40;5.30;;;9.60;99.90;;;;;;5000603;28;20026;-79
2021/09/23 00:12:34;;;;;;;6.10;4.65;;;9.60;99.90;;;;;;4992386;28;20035;-79
2021/09/23 00:15:01;;;;;;;5.60;5.00;;;9.50;99.90;;;;;;4992710;28;20050;-79
2021/09/23 00:17:27;;;;;;;6.85;5.35;;;9.50;99.90;;;;;;4992979;28;20022;-79
2021/09/23 00:19:53;;;;;;;8.30;5.30;;;9.50;99.90;;;;;;4981575;28;20034;-80
2021/09/23 00:22:18;;;;;;;7.22;5.28;;;9.50;99.90;;;;;;4994945;28;20038;-80
2021/09/23 00:24:44;;;;;;;6.15;4.85;;;9.40;99.90;;;;;;5012099;28;20037;-80
2021/09/23 00:27:10;;;;;;;6.45;4.95;;;9.40;99.90;;;;;;4984420;28;20022;-79
2021/09/23 00:29:37;;;;;;;5.70;4.88;;;9.40;99.90;;;;;;4993765;28;20016;-80
2021/09/23 00:32:03;;;;;;;4.90;4.38;;;9.40;99.90;;;;;;4987085;28;20045;-79
2021/09/23 00:34:29;;;;;;;5.72;4.32;;;9.40;99.90;;;;;;4991103;28;20099;-79
2021/09/23 00:36:54;;;;;;;7.30;5.05;;;9.40;99.90;;;;;;4992016;28;20102;-80
2021/09/23 00:39:23;;;;;;;6.88;5.30;;;9.40;99.90;;;;;;4991605;28;20026;-79
2021/09/23 00:41:52;;;;;;;8.65;6.10;;;9.40;99.90;;;;;;5007670;28;20085;-80
2021/09/23 00:44:20;;;;;;;8.02;5.47;;;9.40;99.90;;;;;;4992750;28;20038;-80
2021/09/23 00:46:48;;;;;;;6.80;5.25;;;9.30;99.90;;;;;;4993857;28;20022;-80
2021/09/23 00:49:15;;;;;;;11.00;6.63;;;9.30;99.90;;;;;;5010720;28;20097;-80
2021/09/23 00:51:42;;;;;;;7.72;6.18;;;9.30;99.90;;;;;;4999563;28;20442;-79
2021/09/23 00:54:09;;;;;;;7.75;5.30;;;9.20;99.90;;;;;;4992314;28;20050;-79
2021/09/23 00:56:34;;;;;;;7.20;4.70;;;9.20;99.90;;;;;;4991634;28;20046;-80
2021/09/23 00:59:00;;;;;;;5.78;4.75;;;9.20;99.90;;;;;;4998794;28;20019;-79
2021/09/23 01:01:26;;;;;;;6.50;4.47;;;9.20;99.90;;;;;;4993347;28;20112;-79
2021/09/23 01:03:53;;;;;;;6.57;5.03;;;9.20;99.90;;;;;;5010426;28;20050;-80
2021/09/23 01:06:20;;;;;;;6.43;5.18;;;9.10;99.90;;;;;;5010538;28;20043;-80
2021/09/23 01:08:57;;;;;;;5.18;4.43;;;9.20;99.90;;;;;;5005151;28;20031;-79
2021/09/23 01:11:27;;;;;;;6.47;4.97;;;9.10;99.90;;;;;;4987391;28;20396;-79
2021/09/23 01:13:52;;;;;;;5.28;4.50;;;9.20;99.90;;;;;;4987249;28;20030;-80
2021/09/23 01:16:18;;;;;;;6.00;4.75;;;9.20;99.90;;;;;;5006026;28;20037;-79
2021/09/23 01:18:44;;;;;;;6.20;4.95;;;9.20;99.90;;;;;;4993283;28;20111;-80
2021/09/23 01:21:10;;;;;;;5.38;4.63;;;9.20;99.90;;;;;;5011038;28;20085;-80
2021/09/23 01:23:40;;;;;;;4.82;4.30;;;9.10;99.90;;;;;;4990901;28;20043;-79
2021/09/23 01:26:11;;;;;;;6.28;4.72;;;9.10;99.90;;;;;;4990545;28;20038;-80
2021/09/23 01:28:39;;;;;;;6.72;5.30;;;9.10;99.90;;;;;;4990183;28;20046;-79
2021/09/23 01:31:06;;;;;;;6.97;5.57;;;9.10;99.90;;;;;;5002959;28;20442;-81
2021/09/23 01:33:31;;;;;;;6.90;5.63;;;9.10;99.90;;;;;;4999924;28;20402;-79
2021/09/23 01:35:59;;;;;;;6.05;4.97;;;9.10;99.90;;;;;;4982606;28;20095;-79
2021/09/23 01:38:25;;;;;;;5.30;4.60;;;9.10;99.90;;;;;;4999701;28;20046;-81
2021/09/23 01:40:51;;;;;;;5.28;4.22;;;9.10;99.90;;;;;;4999754;28;20022;-80
2021/09/23 01:43:17;;;;;;;5.00;4.20;;;9.10;99.90;;;;;;5000385;28;20030;-82
2021/09/23 01:45:45;;;;;;;4.70;3.95;;;9.00;99.90;;;;;;5000542;28;20165;-81
2021/09/23 01:48:11;;;;;;;5.47;4.80;;;9.10;99.90;;;;;;5000305;28;20052;-78
2021/09/23 01:50:37;;;;;;;5.47;4.47;;;9.00;99.90;;;;;;4967471;28;20026;-81
2021/09/23 01:53:02;;;;;;;5.57;4.57;;;9.00;99.90;;;;;;4980778;28;20035;-81
2021/09/23 01:55:28;;;;;;;6.88;4.68;;;9.10;99.90;;;;;;4980391;28;20039;-81
2021/09/23 01:57:54;;;;;;;6.03;4.45;;;9.00;99.90;;;;;;4988811;28;20030;-81
2021/09/23 02:00:20;;;;;;;6.47;4.80;;;9.00;99.90;;;;;;4964745;28;20046;-81
2021/09/23 02:02:46;;;;;;;5.28;4.28;;;9.00;99.90;;;;;;4980166;28;20042;-81
2021/09/23 02:05:12;;;;;;;4.25;3.78;;;9.00;99.90;;;;;;4980814;28;20083;-82
2021/09/23 02:07:38;;;;;;;5.28;4.18;;;8.90;99.90;;;;;;4980629;28;20070;-79
2021/09/23 02:10:05;;;;;;;5.15;4.18;;;8.90;99.90;;;;;;4984976;28;20054;-81
2021/09/23 02:12:30;;;;;;;5.10;4.38;;;8.90;99.90;;;;;;4981920;28;20026;-82
2021/09/23 02:14:56;;;;;;;6.10;4.50;;;8.90;99.90;;;;;;4999160;28;20050;-80
2021/09/23 02:17:22;;;;;;;5.82;4.78;;;8.90;99.90;;;;;;4984217;28;20419;-80
2021/09/23 02:19:48;;;;;;;5.95;4.60;;;8.90;99.90;;;;;;4999189;28;20387;-81
2021/09/23 02:22:13;;;;;;;4.85;4.00;;;8.90;99.90;;;;;;4981003;28;20034;-80
2021/09/23 02:24:39;;;;;;;5.45;4.55;;;8.90;99.90;;;;;;4983824;28;20553;-82
2021/09/23 02:27:05;;;;;;;6.47;4.97;;;8.90;99.90;;;;;;4984080;28;20078;-81
2021/09/23 02:29:31;;;;;;;7.18;5.68;;;8.90;99.90;;;;;;4996495;28;20034;-80
2021/09/23 02:31:57;;;;;;;5.65;4.72;;;8.80;99.90;;;;;;5002673;28;20031;-79
2021/09/23 02:34:23;;;;;;;6.35;4.85;;;8.80;99.90;;;;;;4988235;28;20037;-81
2021/09/23 02:36:48;;;;;;;6.43;4.70;;;8.80;99.90;;;;;;4996388;28;20247;-80
2021/09/23 02:39:14;;;;;;;6.75;4.97;;;8.70;99.90;;;;;;5011047;28;20034;-80
2021/09/23 02:41:40;;;;;;;5.72;4.53;;;8.70;99.90;;;;;;5006196;28;20039;-80
2021/09/23 02:44:06;;;;;;;6.60;5.10;;;8.70;99.90;;;;;;5007363;28;20494;-79
2021/09/23 02:46:34;;;;;;;6.57;4.95;;;8.70;99.90;;;;;;5002392;28;20022;-80
2021/09/23 02:49:00;;;;;;;5.70;4.45;;;8.70;99.90;;;;;;5002558;28;20031;-81
2021/09/23 02:51:26;;;;;;;5.28;4.53;;;8.80;99.90;;;;;;4997690;28;20080;-81
2021/09/23 02:53:51;;;;;;;5.13;4.38;;;8.70;99.90;;;;;;4982191;28;20027;-82
2021/09/23 02:56:17;;;;;;;4.05;3.65;;;8.70;99.90;;;;;;5037585;23;20050;-81
2021/09/23 02:58:47;;;;;;;6.18;4.90;;;8.70;99.90;;;;;;5027419;28;20039;-81
2021/09/23 03:01:16;;;;;;;4.85;4.15;;;8.70;99.90;;;;;;5036821;28;20022;-83
2021/09/23 03:03:42;;;;;;;6.03;4.90;;;8.70;99.90;;;;;;5047642;28;20033;-82
2021/09/23 03:06:08;;;;;;;6.90;5.00;;;8.70;99.90;;;;;;5032348;28;20025;-82
2021/09/23 03:08:34;;;;;;;6.85;5.22;;;8.70;99.90;;;;;;5053739;28;20025;-82
2021/09/23 03:11:00;;;;;;;6.57;5.65;;;8.70;99.90;;;;;;5050281;28;20033;-82
2021/09/23 03:13:25;;;;;;;6.78;5.65;;;8.70;99.90;;;;;;5038612;28;20033;-82
2021/09/23 03:15:51;;;;;;;8.63;5.55;;;8.60;99.90;;;;;;5050042;28;20029;-83
2021/09/23 03:18:17;;;;;;;5.95;4.82;;;8.60;99.90;;;;;;5048648;28;20108;-83
2021/09/23 03:20:45;;;;;;;7.07;5.38;;;8.60;99.90;;;;;;5047235;28;20526;-82
2021/09/23 03:23:12;;;;;;;7.18;5.57;;;8.60;99.90;;;;;;5035745;28;20113;-82
2021/09/23 03:25:37;;;;;;;6.13;5.05;;;8.60;99.90;;;;;;5011191;28;20034;-83
2021/09/23 03:28:03;;;;;;;6.43;5.28;;;8.50;99.90;;;;;;5028848;28;20081;-82
2021/09/23 03:30:29;;;;;;;8.07;5.28;;;8.50;99.90;;;;;;5030024;28;20021;-82
2021/09/23 03:32:55;;;;;;;7.32;5.72;;;8.50;99.90;;;;;;5028320;28;20040;-82
2021/09/23 03:35:22;;;;;;;6.88;5.10;;;8.50;99.90;;;;;;5046921;28;20116;-82
2021/09/23 03:37:49;;;;;;;6.93;5.70;;;8.40;99.90;;;;;;5040500;28;20026;-83
2021/09/23 03:40:15;;;;;;;6.93;5.28;;;8.40;99.90;;;;;;5037077;28;20085;-83
2021/09/23 03:42:41;;;;;;;7.95;5.80;;;8.40;99.90;;;;;;5049036;28;20049;-83
2021/09/23 03:45:08;;;;;;;6.97;5.57;;;8.40;99.90;;;;;;5032582;28;20097;-83
2021/09/23 03:47:34;;;;;;;8.07;5.35;;;8.40;99.90;;;;;;5043524;28;20079;-82
2021/09/23 03:50:00;;;;;;;5.78;5.03;;;8.40;99.90;;;;;;5024447;28;20021;-83
2021/09/23 03:52:26;;;;;;;6.00;4.80;;;8.30;99.90;;;;;;5043644;28;20080;-80
2021/09/23 03:54:52;;;;;;;6.20;4.72;;;8.30;99.90;;;;;;5008341;28;20111;-82
2021/09/23 03:57:18;;;;;;;8.93;4.72;;;8.30;99.90;;;;;;5023070;28;20184;-83
2021/09/23 03:59:46;;;;;;;5.82;4.72;;;8.30;99.90;;;;;;5050861;28;20014;-81
2021/09/23 04:02:13;;;;;;;9.55;5.72;;;8.30;99.90;;;;;;5024741;28;20029;-81
2021/09/23 04:04:38;;;;;;;6.47;4.82;;;8.30;99.90;;;;;;5038928;28;20037;-81
2021/09/23 04:07:04;;;;;;;5.82;5.00;;;8.30;99.90;;;;;;5040025;28;20397;-81
2021/09/23 04:09:30;;;;;;;5.80;4.60;;;8.30;99.90;;;;;;5040847;28;20081;-80
2021/09/23 04:11:57;;;;;;;6.68;4.90;;;8.30;99.90;;;;;;5041395;28;20065;-80
2021/09/23 04:14:22;;;;;;;7.85;5.30;;;8.30;99.90;;;;;;5024930;28;20025;-80
2021/09/23 04:16:50;;;;;;;6.10;5.10;;;8.30;99.90;;;;;;5025240;28;20025;-81
2021/09/23 04:19:17;;;;;;;6.35;4.53;;;8.20;99.90;;;;;;5042781;28;20018;-82
2021/09/23 04:21:42;;;;;;;6.70;5.13;;;8.20;99.90;;;;;;5044035;28;20461;-81
2021/09/23 04:24:08;;;;;;;6.22;4.75;;;8.20;99.90;;;;;;5025368;28;20026;-81
2021/09/23 04:26:34;;;;;;;6.22;4.72;;;8.20;99.90;;;;;;5024002;28;20077;-81
2021/09/23 04:29:00;;;;;;;6.57;4.38;;;8.20;99.90;;;;;;5022961;28;20081;-82
2021/09/23 04:31:26;;;;;;;5.25;4.47;;;8.20;99.90;;;;;;5037471;28;20018;-83
2021/09/23 04:33:51;;;;;;;4.80;4.15;;;8.10;99.90;;;;;;5044383;28;20036;-83
2021/09/23 04:36:17;;;;;;;5.88;4.28;;;8.10;99.90;;;;;;5044960;28;20082;-81
2021/09/23 04:38:43;;;;;;;6.88;4.30;;;8.10;99.90;;;;;;5026752;28;20029;-81
2021/09/23 04:41:11;;;;;;;5.88;4.82;;;8.10;99.90;;;;;;5034669;28;20438;-81
2021/09/23 04:43:38;;;;;;;6.15;4.80;;;8.10;99.90;;;;;;5007276;28;20034;-83
2021/09/23 04:46:04;;;;;;;6.20;5.28;;;8.10;99.90;;;;;;5025063;28;20272;-82
2021/09/23 04:48:29;;;;;;;7.43;5.07;;;8.10;99.90;;;;;;5024038;28;20014;-82
2021/09/23 04:50:56;;;;;;;6.90;4.30;;;8.10;99.90;;;;;;5023869;28;20046;-81
2021/09/23 04:53:21;;;;;;;5.93;4.78;;;8.10;99.90;;;;;;5024075;28;20423;-81
2021/09/23 04:55:47;;;;;;;7.80;5.28;;;8.10;99.90;;;;;;5024095;28;20092;-82
2021/09/23 04:58:13;;;;;;;7.03;4.90;;;8.00;99.90;;;;;;5025078;28;20033;-82
2021/09/23 05:00:39;;;;;;;5.32;4.82;;;8.10;99.90;;;;;;5034228;28;20041;-82
2021/09/23 05:03:04;;;;;;;6.57;5.18;;;8.10;99.90;;;;;;5027706;28;20026;-81
2021/09/23 05:05:30;;;;;;;7.45;5.05;;;8.10;99.90;;;;;;5030667;28;20041;-82
2021/09/23 05:07:57;;;;;;;7.40;5.93;;;8.10;99.90;;;;;;5029789;28;20033;-82
2021/09/23 05:10:23;;;;;;;6.07;4.75;;;8.10;99.90;;;;;;5037843;28;20018;-83
2021/09/23 05:12:48;;;;;;;7.95;5.63;;;8.10;99.90;;;;;;5046064;28;20017;-82
2021/09/23 05:15:14;;;;;;;7.63;5.50;;;8.10;99.90;;;;;;5031819;28;20076;-81
2021/09/23 05:17:40;;;;;;;5.63;4.75;;;8.10;99.90;;;;;;5048250;28;20045;-83
2021/09/23 05:20:08;;;;;;;6.05;4.88;;;8.20;99.90;;;;;;5040376;28;20088;-83
2021/09/23 05:22:35;;;;;;;8.13;5.70;;;8.20;99.90;;;;;;4992009;28;20026;-83
2021/09/23 05:25:02;;;;;;;7.25;5.03;;;8.20;99.90;;;;;;5007111;28;20049;-83
2021/09/23 05:27:27;;;;;;;6.43;5.30;;;8.30;99.90;;;;;;5033749;28;20014;-82
2021/09/23 05:29:53;;;;;;;7.18;4.72;;;8.30;99.90;;;;;;5040968;28;20606;-80
2021/09/23 05:32:19;;;;;;;5.97;4.88;;;8.30;99.90;;;;;;5017870;28;20030;-80
2021/09/23 05:34:45;;;;;;;5.65;4.60;;;8.30;99.90;;;;;;5026813;28;20026;-81
2021/09/23 05:37:10;;;;;;;5.97;4.55;;;8.30;99.90;;;;;;5026165;28;20049;-82
2021/09/23 05:39:36;;;;;;;5.90;5.13;;;8.40;99.90;;;;;;5011942;28;20033;-80
2021/09/23 05:42:03;;;;;;;5.03;4.13;;;8.40;99.90;;;;;;5028690;28;20049;-80
2021/09/23 05:44:30;;;;;;;5.60;4.32;;;8.50;99.90;;;;;;4994568;28;20034;-81
2021/09/23 05:46:56;;;;;;;6.43;4.35;;;8.50;99.90;;;;;;4993514;28;20026;-80
2021/09/23 05:49:22;;;;;;;5.32;4.43;;;8.50;99.90;;;;;;5040395;28;20097;-81
2021/09/23 05:51:49;;;;;;;5.38;4.35;;;8.60;99.90;;;;;;5027443;28;20030;-81
2021/09/23 05:54:15;;;;;;;4.82;3.65;;;8.60;99.90;;;;;;5015103;28;20079;-82
2021/09/23 05:56:43;;;;;;;4.85;4.00;;;8.70;99.90;;;;;;5045410;28;20096;-82
2021/09/23 05:59:10;;;;;;;6.22;4.18;;;8.70;99.90;;;;;;5040176;28;20025;-82
2021/09/23 06:01:36;;;;;;;4.22;3.72;;;8.80;99.90;;;;;;5021300;28;20025;-80
2021/09/23 06:04:02;;;;;;;4.60;3.35;;;8.80;99.90;;;;;;5029640;28;20026;-80
2021/09/23 06:06:28;;;;;;;5.70;3.65;;;8.90;99.90;;;;;;5027858;28;20044;-80
2021/09/23 06:08:54;;;;;;;4.70;4.20;;;9.00;99.90;;;;;;5029235;28;20025;-81
2021/09/23 06:11:19;;;;;;;5.63;4.40;;;9.00;99.90;;;;;;5030797;28;20073;-80
2021/09/23 06:13:46;;;;;;;6.15;4.82;;;9.10;99.90;;;;;;5031053;28;20034;-80
2021/09/23 06:16:12;;;;;;;6.70;5.05;;;9.10;99.90;;;;;;5014740;28;20026;-81
2021/09/23 06:18:38;;;;;;;7.38;4.57;;;9.20;99.90;;;;;;5027997;28;20030;-81
2021/09/23 06:21:08;;;;;;;6.53;4.95;;;9.20;99.90;;;;;;5026752;28;20334;-82
2021/09/23 06:23:35;;;;;;;10.55;4.78;;;9.20;99.90;;;;;;5008587;28;20042;-82
2021/09/23 06:26:01;;;;;;;4.57;3.97;;;9.30;99.90;;;;;;5006887;28;20018;-82
2021/09/23 06:28:27;;;;;;;4.63;3.83;;;9.40;99.90;;;;;;5033204;28;20148;-81
2021/09/23 06:30:53;;;;;;;9.05;4.97;;;9.40;99.90;;;;;;5036529;28;20037;-82
2021/09/23 06:33:18;;;;;;;7.47;4.60;;;9.50;99.90;;;;;;5035331;28;20029;-81
2021/09/23 06:35:44;;;;;;;9.88;4.88;;;9.60;99.90;;;;;;5044121;28;20037;-81
2021/09/23 06:38:10;;;;;;;5.88;4.00;;;9.60;99.90;;;;;;5027620;28;20033;-80
2021/09/23 06:40:38;;;;;;;6.78;4.35;;;9.80;99.90;;;;;;5044666;28;20044;-82
2021/09/23 06:43:05;;;;;;;5.90;4.18;;;9.80;99.90;;;;;;5027658;28;20026;-82
2021/09/23 06:45:31;;;;;;;5.72;3.75;;;9.90;99.90;;;;;;4986923;28;20239;-82
2021/09/23 06:47:56;;;;;;;5.53;4.28;;;10.00;99.90;;;;;;4988818;28;20030;-81
2021/09/23 06:50:22;;;;;;;5.78;3.85;;;10.10;99.90;;;;;;4987667;28;20113;-82
2021/09/23 06:52:48;;;;;;;4.18;3.78;;;10.20;99.90;;;;;;5003592;28;20026;-82
2021/09/23 06:55:14;;;;;;;9.52;4.20;;;10.40;99.90;;;;;;4987408;28;20034;-81
2021/09/23 06:57:40;;;;;;;3.80;3.30;;;10.50;99.90;;;;;;5005821;28;20056;-81
2021/09/23 07:00:07;;;;;;;4.22;3.22;;;10.60;99.90;;;;;;5024175;28;20100;-83
2021/09/23 07:02:33;;;;;;;4.70;3.58;;;10.70;99.90;;;;;;5029279;28;20072;-83
2021/09/23 07:04:58;;;;;;;3.97;3.50;;;10.80;99.90;;;;;;5025780;28;20030;-84
2021/09/23 07:07:24;;;;;;;3.45;3.15;;;11.00;99.90;;;;;;5024390;28;20021;-83
2021/09/23 07:09:50;;;;;;;5.95;4.05;;;11.10;99.90;;;;;;5020528;28;20056;-83
2021/09/23 07:12:16;;;;;;;4.18;3.50;;;11.20;99.90;;;;;;5014766;28;20046;-82
2021/09/23 07:14:42;;;;;;;9.30;5.43;;;11.40;99.90;;;;;;5018614;28;20026;-83
2021/09/23 07:17:08;;;;;;;6.53;4.68;;;11.50;99.00;;;;;;5001123;28;20037;-82
2021/09/23 07:19:33;;;;;;;9.40;4.38;;;11.70;98.20;;;;;;5017927;28;20023;-82
2021/09/23 07:21:59;;;;;;;5.55;3.88;;;11.70;97.50;;;;;;5033160;28;20064;-84
2021/09/23 07:24:25;;;;;;;4.57;4.07;;;11.90;97.60;;;;;;5033841;28;20034;-84
2021/09/23 07:26:51;;;;;;;4.13;3.58;;;12.10;97.30;;;;;;5010786;28;20093;-82
2021/09/23 07:29:18;;;;;;;3.83;3.25;;;12.20;96.70;;;;;;5028728;28;20045;-83
2021/09/23 07:31:46;;;;;;;3.85;3.33;;;12.50;96.30;;;;;;5037700;28;20093;-84
2021/09/23 07:34:13;;;;;;;5.45;4.10;;;12.60;95.70;;;;;;5032493;28;20486;-83
2021/09/23 07:36:40;;;;;;;4.68;4.20;;;12.80;95.10;;;;;;5027699;28;20036;-83
2021/09/23 07:39:21;;;;;;;4.80;4.22;;;12.90;94.00;;;;;;5031525;28;20030;-84
2021/09/23 07:41:50;;;;;;;4.60;4.13;;;13.10;93.70;;;;;;5017782;28;20057;-83
2021/09/23 07:44:20;;;;;;;7.43;4.50;;;13.40;93.30;;;;;;4991801;28;20038;-83
2021/09/23 07:46:46;;;;;;;5.55;4.43;;;13.50;92.50;;;;;;5008282;28;20022;-82
2021/09/23 07:49:12;;;;;;;5.38;4.50;;;13.60;92.20;;;;;;4990941;28;20399;-82
2021/09/23 07:51:38;;;;;;;4.80;3.88;;;13.70;92.20;;;;;;4989597;28;20029;-82
2021/09/23 07:54:03;;;;;;;4.60;3.83;;;13.90;92.00;;;;;;5002969;28;20466;-83
2021/09/23 07:56:29;;;;;;;4.30;3.85;;;14.10;91.70;;;;;;5036787;28;20062;-84
2021/09/23 07:58:55;;;;;;;5.07;4.07;;;14.30;91.20;;;;;;5036398;28;20033;-85
2021/09/23 08:01:21;;;;;;;4.75;3.90;;;14.50;90.80;;;;;;5042623;28;20026;-85
2021/09/23 08:03:47;;;;;;;6.75;4.13;;;14.80;90.30;;;;;;5008958;28;20035;-85
2021/09/23 08:06:13;;;;;;;5.63;4.10;;;15.10;88.60;;;;;;5006859;28;20098;-84
2021/09/23 08:08:38;;;;;;;4.55;3.20;;;15.30;86.80;;;;;;4988791;28;20026;-84
2021/09/23 08:11:04;;;;;;;6.13;4.53;;;15.50;85.70;;;;;;5005664;28;20014;-84
2021/09/23 08:13:30;;;;;;;7.13;4.15;;;15.50;84.20;;;;;;4987814;28;20030;-85
2021/09/23 08:15:56;;;;;;;5.05;4.10;;;15.50;83.50;;;;;;5005925;28;20029;-86
2021/09/23 08:18:22;;;;;;;5.35;3.65;;;15.50;84.80;;;;;;5006603;28;20031;-84
2021/09/23 08:20:49;;;;;;;4.57;3.50;;;15.60;84.40;;;;;;5004907;28;20086;-85
2021/09/23 08:23:15;;;;;;;6.43;4.13;;;15.80;84.30;;;;;;5008073;28;20533;-84
2021/09/23 08:25:41;;;;;;;4.55;3.80;;;16.20;83.10;;;;;;5008704;28;20032;-84
2021/09/23 08:28:07;;;;;;;3.88;3.40;;;16.50;81.60;;;;;;5007622;28;20058;-84
2021/09/23 08:30:34;;;;;;;3.40;3.10;;;16.80;80.10;;;;;;5032181;28;20073;-84
2021/09/23 08:33:00;;;;;;;5.45;3.45;;;17.00;78.80;;;;;;5031350;28;20121;-84
2021/09/23 08:35:26;;;;;;;6.65;3.55;;;16.90;77.30;;;;;;4987672;28;20019;-84
2021/09/23 08:37:52;;;;;;;6.03;3.75;;;16.80;77.10;;;;;;5004801;28;20037;-84
2021/09/23 08:40:18;;;;;;;5.82;3.70;;;16.70;76.90;;;;;;5004841;28;20049;-83
2021/09/23 08:42:45;;;;;;;4.22;3.60;;;16.80;77.60;;;;;;4987027;28;20026;-82
2021/09/23 08:45:14;;;;;;;3.33;3.03;;;17.20;75.90;;;;;;5004155;28;20038;-83
2021/09/23 08:47:45;;;;;;;3.00;2.70;;;17.30;74.20;;;;;;5004319;28;20042;-85
2021/09/23 08:50:13;;;;;;;2.97;2.72;;;17.50;74.10;;;;;;4987731;28;20021;-83
2021/09/23 08:52:40;;;;;;;4.97;2.80;;;17.80;72.30;;;;;;4989786;28;20034;-83
2021/09/23 08:55:06;;;;;;;5.60;3.33;;;18.10;71.30;;;;;;5023256;23;20018;-83
2021/09/23 08:57:33;;;;;;;3.50;2.97;;;18.10;69.50;;;;;;5023885;28;20021;-82
2021/09/23 09:00:09;;;;;;;2.95;2.60;;;17.80;69.80;;;;;;5040801;28;20033;-84
2021/09/23 09:02:34;;;;;;;4.20;2.60;;;17.90;70.70;;;;;;5031503;28;20052;-84
2021/09/23 09:05:00;;;;;;;2.80;2.60;;;18.20;69.90;;;;;;5016784;28;20030;-83
2021/09/23 09:07:30;;;;;;;3.08;2.40;;;18.60;68.90;;;;;;5023777;28;20030;-83
2021/09/23 09:10:08;;;;;;;3.58;2.72;;;18.90;67.50;;;;;;5015780;28;20033;-84
2021/09/23 09:12:35;;;;;;;2.55;2.35;;;19.30;66.30;;;;;;5023882;28;20045;-82
2021/09/23 09:15:02;;;;;;;2.70;2.50;;;19.50;65.50;;;;;;5021537;28;20026;-81
2021/09/23 09:17:35;;;;;;;3.25;3.05;;;19.70;64.30;;;;;;5021823;28;20110;-81
2021/09/23 09:20:03;;;;;;;2.90;2.70;;;20.00;63.60;;;;;;5021614;28;20109;-82
2021/09/23 09:22:31;;;;;;;2.45;2.25;;;20.20;62.50;;;;;;5021969;28;20022;-82
2021/09/23 09:25:08;;;;;;;8.25;3.00;;;20.40;61.60;;;;;;5022472;28;20036;-82
2021/09/23 09:27:45;;;;;;;2.50;2.30;;;20.60;60.80;;;;;;5025245;28;20029;-83
2021/09/23 09:30:12;;;;;;;2.72;2.53;;;20.70;60.00;;;;;;5018359;28;20030;-82
2021/09/23 09:32:50;;;;;;;2.47;2.28;;;20.90;59.00;;;;;;5016683;28;20025;-82
2021/09/23 09:35:26;;;;;;;2.13;1.92;;;21.00;58.20;;;;;;5016888;28;20120;-82
2021/09/23 09:37:54;;;;;;;3.38;2.42;;;21.00;57.70;;;;;;5002938;28;20072;-83
2021/09/23 09:40:22;;;;;;;2.55;2.20;;;21.00;57.60;;;;;;5020556;28;20022;-81
2021/09/23 09:42:51;;;;;;;2.67;2.20;;;21.10;57.30;;;;;;5020493;28;20025;-82
2021/09/23 09:45:26;;;;;;;2.03;1.92;;;21.10;56.90;;;;;;5020437;28;20028;-82
2021/09/23 09:47:53;;;;;;;3.00;2.70;;;21.20;56.80;;;;;;5020495;28;20079;-82
2021/09/23 09:50:33;;;;;;;2.13;2.03;;;21.30;56.40;;;;;;5003278;28;20051;-82
2021/09/23 09:53:01;;;;;;;2.47;2.28;;;21.40;56.10;;;;;;5003229;28;20032;-82
2021/09/23 09:55:30;;;;;;;2.50;2.30;;;21.10;56.20;;;;;;5022847;28;20086;-83
2021/09/23 09:57:57;;;;;;;3.35;2.10;;;20.90;56.90;;;;;;5004544;28;20234;-82
2021/09/23 10:00:24;;;;;;;4.50;2.53;;;21.10;57.30;;;;;;5024557;28;20018;-84
2021/09/23 10:02:51;;;;;;;3.20;2.53;;;21.10;56.90;;;;;;5026121;28;20073;-84
2021/09/23 10:05:21;;;;;;;2.20;2.10;;;21.00;58.70;;;;;;5023863;28;20026;-84
2021/09/23 10:07:50;;;;;;;3.17;2.25;;;21.60;58.10;;;;;;5036010;28;20026;-84
2021/09/23 10:10:17;;;;;;;2.83;2.35;;;23.30;55.70;;;;;;5039475;28;20076;-84
2021/09/23 10:12:45;;;;;;;2.15;1.95;;;25.10;51.90;;;;;;5044337;28;20185;-83
2021/09/23 10:15:16;;;;;;;2.40;2.20;;;25.70;48.50;;;;;;5024701;28;20026;-84
2021/09/23 10:17:44;;;;;;;1.98;1.80;;;25.40;47.80;;;;;;5024769;28;20025;-84
2021/09/23 10:20:12;;;;;;;2.10;2.00;;;24.90;48.30;;;;;;5018630;28;20026;-83
2021/09/23 10:22:38;;;;;;;1.83;1.73;;;24.90;48.50;;;;;;5012302;28;20033;-83
2021/09/23 10:25:07;;;;;;;2.30;2.20;;;26.10;47.50;;;;;;5001672;28;20030;-81
2021/09/23 10:30:21;;;;;;;2.55;2.35;;;26.40;44.90;;;;;;5020687;28;20172;-82
2021/09/23 10:32:47;;;;;;;3.22;2.20;;;25.70;45.50;;;;;;5026284;28;20105;-82
2021/09/23 10:35:15;;;;;;;2.15;2.00;;;24.70;45.90;;;;;;5039610;28;20036;-82
2021/09/23 10:37:41;;;;;;;1.95;1.85;;;23.90;47.70;;;;;;5012197;28;20030;-82
2021/09/23 10:40:09;;;;;;;2.10;2.00;;;23.50;48.80;;;;;;5017427;28;20037;-84
2021/09/23 10:42:36;;;;;;;2.03;1.83;;;23.20;49.60;;;;;;5020079;28;20030;-83
2021/09/23 10:45:05;;;;;;;2.08;1.98;;;23.10;49.20;;;;;;5023905;28;20033;-83
2021/09/23 10:47:33;;;;;;;1.92;1.83;;;23.10;49.70;;;;;;5024631;28;20446;-84
2021/09/23 10:50:01;;;;;;;1.70;1.60;;;23.20;49.80;;;;;;5006060;28;20113;-83
2021/09/23 10:52:30;;;;;;;2.13;1.92;;;23.20;49.10;;;;;;5023088;28;20022;-84
2021/09/23 10:54:57;;;;;;;1.70;1.60;;;23.10;49.10;;;;;;5009733;28;20030;-84
2021/09/23 10:57:26;;;;;;;3.08;1.92;;;23.10;49.00;;;;;;5027619;28;20029;-83
2021/09/23 10:59:54;;;;;;;1.67;1.58;;;23.00;48.80;;;;;;5031436;28;20064;-84
2021/09/23 11:02:30;;;;;;;2.05;1.60;;;22.90;49.20;;;;;;5029730;28;20409;-83
2021/09/23 11:05:00;;;;;;;1.95;1.75;;;23.00;49.30;;;;;;5027176;28;20117;-83
2021/09/23 11:07:29;;;;;;;2.00;1.85;;;23.00;49.00;;;;;;5023316;28;20033;-83
2021/09/23 11:10:06;;;;;;;1.90;1.80;;;23.10;48.80;;;;;;5022352;28;20108;-84
2021/09/23 11:12:33;;;;;;;1.85;1.65;;;23.20;48.10;;;;;;5024066;28;20076;-83
2021/09/23 11:14:59;;;;;;;2.10;2.00;;;23.00;48.20;;;;;;5006712;28;20103;-84
2021/09/23 11:17:27;;;;;;;2.65;1.95;;;22.70;49.10;;;;;;5006058;28;20101;-84
2021/09/23 11:20:28;;;;;;;2.05;1.73;;;22.60;49.60;;;;;;5023347;28;20053;-84
2021/09/23 11:23:02;;;;;;;3.47;2.13;;;22.90;49.80;;;;;;4995012;28;20041;-82
2021/09/23 11:25:32;;;;;;;1.80;1.70;;;23.70;48.30;;;;;;4999691;28;20082;-84
2021/09/23 11:27:59;;;;;;;2.38;1.98;;;23.80;47.40;;;;;;5018976;28;20101;-84
2021/09/23 11:30:29;;;;;;;1.70;1.60;;;24.00;46.90;;;;;;5012538;28;20032;-84
2021/09/23 11:33:01;;;;;;;1.60;1.52;;;24.20;46.60;;;;;;5015962;28;20061;-84
2021/09/23 11:35:30;;;;;;;1.92;1.83;;;24.30;46.20;;;;;;5021947;28;20087;-83
2021/09/23 11:37:58;;;;;;;1.77;1.67;;;24.20;46.00;;;;;;5019460;28;20098;-84
2021/09/23 11:40:29;;;;;;;1.85;1.70;;;24.40;45.90;;;;;;5020726;28;20021;-82
2021/09/23 11:42:56;;;;;;;2.05;1.85;;;24.50;45.70;;;;;;5013874;28;20026;-83
2021/09/23 11:45:28;;;;;;;1.50;1.40;;;24.50;44.90;;;;;;5020937;28;20026;-82
2021/09/23 11:47:56;;;;;;;1.95;1.65;;;24.50;44.60;;;;;;5026850;28;20088;-83
2021/09/23 11:50:25;;;;;;;1.90;1.70;;;24.40;44.60;;;;;;5027320;28;20022;-83
2021/09/23 11:52:54;;;;;;;1.70;1.60;;;23.90;44.80;;;;;;5027212;28;20090;-83
2021/09/23 11:55:19;;;;;;;1.80;1.70;;;23.60;45.80;;;;;;5023297;28;20038;-83
2021/09/23 11:57:45;;;;;;;2.20;1.60;;;23.40;45.30;;;;;;5029804;28;20032;-84
2021/09/23 12:00:11;;;;;;;2.40;1.75;;;23.30;45.70;;;;;;5033487;28;20087;-84
2021/09/23 12:02:37;;;;;;;1.85;1.75;;;23.30;45.80;;;;;;5013631;28;20061;-84
2021/09/23 12:05:03;;;;;;;2.42;1.95;;;23.30;46.00;;;;;;5037778;28;20030;-84
2021/09/23 12:07:41;;;;;;;2.53;1.83;;;23.20;45.90;;;;;;5002672;28;20053;-83
2021/09/23 12:10:14;;;;;;;1.63;1.52;;;23.20;46.50;;;;;;5002087;28;20025;-84
2021/09/23 12:12:41;;;;;;;2.85;1.50;;;23.20;46.60;;;;;;5002474;28;20022;-83
2021/09/23 12:15:07;;;;;;;3.72;1.92;;;23.40;46.50;;;;;;5020171;28;20022;-83
2021/09/23 12:17:33;;;;;;;2.72;1.67;;;23.40;45.70;;;;;;5003673;28;20137;-84
2021/09/23 12:20:00;;;;;;;2.30;2.10;;;23.30;46.20;;;;;;5021527;28;20021;-83
2021/09/23 12:22:34;;;;;;;2.10;1.90;;;23.20;45.90;;;;;;5021123;28;20025;-83
2021/09/23 12:25:10;;;;;;;1.95;1.75;;;23.30;46.20;;;;;;5020688;28;20022;-83
2021/09/23 12:27:37;;;;;;;3.20;1.77;;;23.30;46.10;;;;;;5028687;28;20017;-82
2021/09/23 12:30:04;;;;;;;1.92;1.70;;;23.30;46.00;;;;;;5024576;28;20026;-81
2021/09/23 12:32:31;;;;;;;2.20;2.05;;;23.50;46.50;;;;;;5023504;28;20025;-81
2021/09/23 12:34:57;;;;;;;1.80;1.70;;;23.60;46.50;;;;;;5018360;28;20028;-82
2021/09/23 12:37:25;;;;;;;2.40;1.85;;;23.70;46.20;;;;;;5024563;28;20033;-82
2021/09/23 12:39:52;;;;;;;2.50;1.73;;;23.70;46.60;;;;;;5025613;28;20048;-81
2021/09/23 12:42:23;;;;;;;1.60;1.50;;;23.90;46.10;;;;;;5025458;28;20025;-80
2021/09/23 12:45:02;;;;;;;1.73;1.60;;;24.00;46.10;;;;;;5017194;28;20037;-80
2021/09/23 12:47:30;;;;;;;3.00;1.63;;;24.00;46.30;;;;;;5004975;28;20041;-80
2021/09/23 12:50:07;;;;;;;1.98;1.88;;;24.30;46.10;;;;;;5004538;28;20478;-83
2021/09/23 12:52:33;;;;;;;1.80;1.58;;;24.50;45.60;;;;;;5021699;28;20022;-81
2021/09/23 12:55:01;;;;;;;2.67;1.75;;;24.70;45.20;;;;;;5021631;28;20024;-82
2021/09/23 12:57:33;;;;;;;2.53;1.83;;;24.80;44.60;;;;;;5004880;28;20029;-81